createdAt,value
2019-05-19T00:01:11.260Z,15.20
2019-05-19T00:03:39.481Z,15.20
2019-05-19T00:06:07.696Z,15.10
2019-05-19T00:08:36.180Z,15.20
2019-05-19T00:11:04.397Z,15.10
2019-05-19T00:13:32.592Z,15.10
2019-05-19T00:16:01.232Z,15.10
2019-05-19T00:18:29.446Z,15.10
2019-05-19T00:20:57.989Z,15.10
2019-05-19T00:23:26.206Z,15.10
2019-05-19T00:25:54.889Z,15.00
2019-05-19T00:28:23.088Z,15.00
2019-05-19T00:30:51.614Z,15.00
2019-05-19T00:33:19.873Z,15.00
2019-05-19T00:35:48.161Z,15.00
2019-05-19T00:38:16.361Z,15.00
2019-05-19T00:40:44.924Z,15.00
2019-05-19T00:43:13.119Z,15.00
2019-05-19T00:45:41.347Z,15.00
2019-05-19T00:48:09.552Z,15.00
2019-05-19T00:50:37.759Z,15.00
2019-05-19T00:53:05.969Z,15.00
2019-05-19T00:55:34.377Z,15.00
2019-05-19T00:58:02.630Z,15.00
2019-05-19T01:00:30.908Z,14.90
2019-05-19T01:02:59.107Z,14.90
2019-05-19T01:05:27.680Z,14.90
2019-05-19T01:07:56.148Z,14.90
2019-05-19T01:10:24.716Z,14.90
2019-05-19T01:12:52.928Z,14.80
2019-05-19T01:15:21.167Z,14.90
2019-05-19T01:17:49.673Z,14.80
2019-05-19T01:20:17.945Z,14.80
2019-05-19T01:22:46.249Z,14.80
2019-05-19T01:25:14.534Z,14.80
2019-05-19T01:27:42.751Z,14.80
2019-05-19T01:30:11.218Z,14.80
2019-05-19T01:32:39.416Z,14.70
2019-05-19T01:35:07.619Z,14.70
2019-05-19T01:37:36.168Z,14.70
2019-05-19T01:40:06.370Z,14.70
2019-05-19T01:42:34.584Z,14.70
2019-05-19T01:45:03.867Z,14.70
2019-05-19T01:47:32.072Z,14.70
2019-05-19T01:50:16.897Z,14.70
2019-05-19T01:52:30.626Z,14.70
2019-05-19T01:54:58.817Z,14.70
2019-05-19T01:57:27.025Z,14.60
2019-05-19T01:59:55.286Z,14.60
2019-05-19T02:02:23.499Z,14.60
2019-05-19T02:04:51.698Z,14.60
2019-05-19T02:07:20.006Z,14.50
2019-05-19T02:09:48.229Z,14.50
2019-05-19T02:12:16.445Z,14.60
2019-05-19T02:14:44.666Z,14.50
2019-05-19T02:17:12.873Z,14.50
2019-05-19T02:19:41.409Z,14.50
2019-05-19T02:22:09.948Z,14.50
2019-05-19T02:24:38.428Z,14.40
2019-05-19T02:27:06.640Z,14.40
2019-05-19T02:29:35.081Z,14.40
2019-05-19T02:32:03.298Z,14.40
2019-05-19T02:34:31.500Z,14.40
2019-05-19T02:36:59.726Z,14.40
2019-05-19T02:39:28.193Z,14.30
2019-05-19T02:41:56.907Z,14.30
2019-05-19T02:44:25.104Z,14.20
2019-05-19T02:46:53.369Z,14.20
2019-05-19T02:49:21.933Z,14.20
2019-05-19T02:51:50.140Z,14.20
2019-05-19T02:54:18.765Z,14.20
2019-05-19T02:56:47.069Z,14.20
2019-05-19T02:59:15.560Z,14.10
2019-05-19T03:02:03.766Z,14.10
2019-05-19T03:04:32.033Z,14.10
2019-05-19T03:07:00.242Z,14.10
2019-05-19T03:09:28.758Z,14.00
2019-05-19T03:11:56.992Z,14.00
2019-05-19T03:14:25.289Z,14.10
2019-05-19T03:16:53.741Z,14.10
2019-05-19T03:19:22.251Z,14.00
2019-05-19T03:21:50.705Z,14.10
2019-05-19T03:24:18.909Z,14.10
2019-05-19T03:26:47.114Z,14.10
2019-05-19T03:29:16.962Z,14.10
2019-05-19T03:31:59.374Z,14.10
2019-05-19T03:34:27.576Z,14.10
2019-05-19T03:36:55.856Z,14.10
2019-05-19T03:39:24.061Z,14.10
2019-05-19T03:41:52.271Z,14.10
2019-05-19T03:44:20.480Z,14.10
2019-05-19T03:46:48.925Z,14.10
2019-05-19T03:49:17.228Z,14.10
2019-05-19T03:51:45.451Z,14.10
2019-05-19T03:54:14.261Z,14.10
2019-05-19T03:56:42.460Z,14.10
2019-05-19T03:59:10.681Z,14.10
2019-05-19T04:01:38.914Z,14.10
2019-05-19T04:04:07.123Z,14.10
2019-05-19T04:06:35.320Z,14.10
2019-05-19T04:09:04.906Z,14.10
2019-05-19T04:11:33.440Z,14.10
2019-05-19T04:14:01.636Z,14.10
2019-05-19T04:16:29.843Z,14.10
2019-05-19T04:18:58.057Z,14.10
2019-05-19T04:21:26.275Z,14.10
2019-05-19T04:23:54.742Z,14.10
2019-05-19T04:26:22.951Z,14.10
2019-05-19T04:28:51.168Z,14.10
2019-05-19T04:31:19.370Z,14.10
2019-05-19T04:33:47.580Z,14.10
2019-05-19T04:36:15.793Z,14.10
2019-05-19T04:38:44.009Z,14.10
2019-05-19T04:41:12.240Z,14.10
2019-05-19T04:43:40.513Z,14.20
2019-05-19T04:46:08.721Z,14.10
2019-05-19T04:48:36.932Z,14.10
2019-05-19T04:51:05.267Z,14.10
2019-05-19T04:53:33.460Z,14.20
2019-05-19T04:56:01.684Z,14.10
2019-05-19T04:58:29.889Z,14.10
2019-05-19T05:00:58.435Z,14.10
2019-05-19T05:03:26.656Z,14.20
2019-05-19T05:05:54.859Z,14.20
2019-05-19T05:08:29.964Z,14.10
2019-05-19T05:10:53.101Z,14.20
2019-05-19T05:13:21.304Z,14.20
2019-05-19T05:15:49.553Z,14.20
2019-05-19T05:18:18.218Z,14.20
2019-05-19T05:20:46.713Z,14.20
2019-05-19T05:23:15.172Z,14.20
2019-05-19T05:25:43.660Z,14.20
2019-05-19T05:28:11.865Z,14.20
2019-05-19T05:30:40.072Z,14.30
2019-05-19T05:33:08.348Z,14.30
2019-05-19T05:35:36.560Z,14.30
2019-05-19T05:38:04.777Z,14.30
2019-05-19T05:40:33.307Z,14.30
2019-05-19T05:43:01.818Z,14.30
2019-05-19T05:45:30.385Z,14.40
2019-05-19T05:47:58.650Z,14.40
2019-05-19T05:50:26.866Z,14.50
2019-05-19T05:52:55.078Z,14.50
2019-05-19T05:55:23.609Z,14.50
2019-05-19T05:57:51.819Z,14.50
2019-05-19T06:00:20.052Z,14.50
2019-05-19T06:02:48.297Z,14.50
2019-05-19T06:05:16.800Z,14.60
2019-05-19T06:07:45.264Z,14.60
2019-05-19T06:10:13.477Z,14.60
2019-05-19T06:12:41.694Z,14.60
2019-05-19T06:15:09.908Z,14.70
2019-05-19T06:17:38.140Z,14.70
2019-05-19T06:20:07.297Z,14.70
2019-05-19T06:22:35.839Z,14.70
2019-05-19T06:25:05.179Z,14.80
2019-05-19T06:27:33.397Z,14.80
2019-05-19T06:30:01.915Z,14.80
2019-05-19T06:32:34.489Z,14.90
2019-05-19T06:35:03.076Z,14.90
2019-05-19T06:37:31.680Z,14.90
2019-05-19T06:39:59.957Z,15.00
2019-05-19T06:42:28.177Z,15.00
2019-05-19T06:44:56.382Z,15.00
2019-05-19T06:47:24.609Z,15.00
2019-05-19T06:49:52.839Z,15.10
2019-05-19T06:52:21.036Z,15.10
2019-05-19T06:54:49.237Z,15.20
2019-05-19T06:57:17.471Z,15.20
2019-05-19T06:59:45.667Z,15.30
2019-05-19T07:02:13.914Z,15.30
2019-05-19T07:04:42.191Z,15.40
2019-05-19T07:07:10.681Z,15.40
2019-05-19T07:09:38.940Z,15.50
2019-05-19T07:12:07.409Z,15.50
2019-05-19T07:14:35.616Z,15.60
2019-05-19T07:17:04.061Z,15.60
2019-05-19T07:19:32.273Z,15.70
2019-05-19T07:22:00.484Z,15.70
2019-05-19T07:24:28.692Z,15.80
2019-05-19T07:26:57.170Z,15.80
2019-05-19T07:29:25.382Z,15.90
2019-05-19T07:31:53.834Z,15.90
2019-05-19T07:34:22.103Z,16.00
2019-05-19T07:36:50.587Z,16.00
2019-05-19T07:39:18.801Z,16.10
2019-05-19T07:41:47.001Z,16.10
2019-05-19T07:44:15.521Z,16.20
2019-05-19T07:46:43.745Z,16.30
2019-05-19T07:49:12.007Z,16.40
2019-05-19T07:51:40.205Z,16.50
2019-05-19T07:54:08.427Z,16.50
2019-05-19T07:56:36.899Z,16.60
2019-05-19T07:59:07.877Z,16.70
2019-05-19T08:01:35.031Z,16.80
2019-05-19T08:04:03.568Z,16.80
2019-05-19T08:06:31.816Z,16.90
2019-05-19T08:08:59.984Z,17.10
2019-05-19T08:11:28.193Z,17.20
2019-05-19T08:13:56.435Z,17.30
2019-05-19T08:16:24.688Z,17.40
2019-05-19T08:18:53.232Z,17.50
2019-05-19T08:21:21.448Z,17.50
2019-05-19T08:23:59.839Z,17.50
2019-05-19T08:26:19.889Z,17.60
2019-05-19T08:28:48.091Z,17.60
2019-05-19T08:31:16.293Z,17.70
2019-05-19T08:33:44.527Z,17.60
2019-05-19T08:36:12.751Z,17.80
2019-05-19T08:38:40.953Z,17.80
2019-05-19T08:41:09.193Z,17.80
2019-05-19T08:43:37.480Z,17.90
2019-05-19T08:46:06.124Z,17.90
2019-05-19T08:48:34.396Z,17.90
2019-05-19T08:51:02.729Z,18.00
2019-05-19T08:53:30.971Z,18.10
2019-05-19T08:55:59.176Z,18.20
2019-05-19T08:58:27.395Z,18.30
2019-05-19T09:00:55.606Z,18.40
2019-05-19T09:03:23.813Z,18.50
2019-05-19T09:05:52.098Z,18.60
2019-05-19T09:08:20.297Z,18.80
2019-05-19T09:10:48.504Z,18.90
2019-05-19T09:13:16.701Z,18.90
2019-05-19T09:15:44.921Z,19.00
2019-05-19T09:18:13.115Z,19.00
2019-05-19T09:20:41.301Z,19.20
2019-05-19T09:23:09.514Z,19.30
2019-05-19T09:25:37.720Z,19.20
2019-05-19T09:28:25.708Z,19.30
2019-05-19T09:30:54.215Z,19.40
2019-05-19T09:33:22.425Z,19.40
2019-05-19T09:35:50.932Z,19.50
2019-05-19T09:38:19.271Z,19.60
2019-05-19T09:40:47.491Z,19.80
2019-05-19T09:43:15.768Z,19.70
2019-05-19T09:45:44.289Z,19.80
2019-05-19T09:48:12.517Z,19.80
2019-05-19T09:50:40.701Z,19.80
2019-05-19T09:53:08.949Z,19.90
2019-05-19T09:55:37.396Z,19.90
2019-05-19T09:58:05.614Z,20.00
2019-05-19T10:00:33.833Z,20.00
2019-05-19T10:03:02.092Z,20.20
2019-05-19T10:05:30.976Z,20.30
2019-05-19T10:07:59.202Z,20.50
2019-05-19T10:10:31.186Z,20.70
2019-05-19T10:12:59.384Z,20.70
2019-05-19T10:15:27.600Z,20.80
2019-05-19T10:17:55.893Z,20.90
2019-05-19T10:20:24.086Z,21.00
2019-05-19T10:22:52.321Z,21.00
2019-05-19T10:25:22.545Z,21.20
2019-05-19T10:27:50.512Z,21.10
2019-05-19T10:30:18.704Z,21.10
2019-05-19T10:32:47.172Z,21.20
2019-05-19T10:35:15.377Z,21.40
2019-05-19T10:37:43.569Z,21.50
2019-05-19T10:40:11.803Z,21.60
2019-05-19T10:42:40.033Z,21.60
2019-05-19T10:45:08.921Z,21.60
2019-05-19T10:47:37.144Z,21.60
2019-05-19T10:50:05.902Z,21.70
2019-05-19T10:52:34.110Z,21.60
2019-05-19T10:55:02.312Z,21.50
2019-05-19T10:57:30.525Z,21.60
2019-05-19T10:59:59.090Z,21.60
2019-05-19T11:02:27.287Z,21.60
2019-05-19T11:04:55.488Z,21.80
2019-05-19T11:07:23.685Z,21.90
2019-05-19T11:09:51.896Z,22.10
2019-05-19T11:12:20.106Z,22.20
2019-05-19T11:14:48.313Z,22.30
2019-05-19T11:17:16.859Z,22.40
2019-05-19T11:19:45.429Z,22.40
2019-05-19T11:22:13.624Z,22.40
2019-05-19T11:24:42.110Z,22.20
2019-05-19T11:27:10.281Z,22.10
2019-05-19T11:29:38.495Z,22.00
2019-05-19T11:32:06.698Z,21.90
2019-05-19T11:34:34.910Z,21.80
2019-05-19T11:37:03.101Z,21.80
2019-05-19T11:39:31.314Z,21.80
2019-05-19T11:41:59.506Z,21.70
2019-05-19T11:44:27.707Z,21.80
2019-05-19T11:46:56.156Z,21.70
2019-05-19T11:49:24.368Z,21.80
2019-05-19T11:51:52.576Z,21.80
2019-05-19T11:54:21.093Z,21.90
2019-05-19T11:56:49.300Z,22.00
2019-05-19T11:59:17.509Z,22.00
2019-05-19T12:01:45.753Z,22.20
2019-05-19T12:04:13.944Z,22.50
2019-05-19T12:06:42.170Z,22.60
2019-05-19T12:09:10.739Z,22.90
2019-05-19T12:11:38.985Z,23.10
2019-05-19T12:14:07.185Z,23.00
2019-05-19T12:16:35.377Z,23.00
2019-05-19T12:19:03.572Z,23.00
2019-05-19T12:21:31.797Z,23.00
2019-05-19T12:24:00.009Z,23.10
2019-05-19T12:26:28.197Z,23.00
2019-05-19T12:28:56.398Z,23.10
2019-05-19T12:31:24.619Z,23.30
2019-05-19T12:33:52.820Z,23.30
2019-05-19T12:36:21.030Z,23.30
2019-05-19T12:38:49.257Z,23.40
2019-05-19T12:41:17.661Z,23.60
2019-05-19T12:43:45.867Z,23.60
2019-05-19T12:46:16.661Z,23.60
2019-05-19T12:48:44.432Z,23.70
2019-05-19T12:51:12.725Z,23.70
2019-05-19T12:53:40.909Z,23.70
2019-05-19T12:56:09.115Z,23.70
2019-05-19T12:58:37.329Z,23.90
2019-05-19T13:01:05.533Z,24.10
2019-05-19T13:03:34.054Z,24.20
2019-05-19T13:06:02.266Z,24.40
2019-05-19T13:08:30.467Z,24.60
2019-05-19T13:10:58.680Z,24.80
2019-05-19T13:13:26.983Z,24.80
2019-05-19T13:15:55.184Z,25.10
2019-05-19T13:18:23.405Z,25.00
2019-05-19T13:20:51.597Z,25.10
2019-05-19T13:23:19.799Z,25.40
2019-05-19T13:25:48.020Z,25.60
2019-05-19T13:28:16.224Z,25.90
2019-05-19T13:30:44.445Z,26.00
2019-05-19T13:33:12.965Z,26.30
2019-05-19T13:35:41.156Z,26.50
2019-05-19T13:38:09.376Z,26.70
2019-05-19T13:40:37.602Z,26.90
2019-05-19T13:43:06.068Z,27.20
2019-05-19T13:45:34.553Z,27.30
2019-05-19T13:48:03.033Z,27.50
2019-05-19T13:50:31.227Z,27.60
2019-05-19T13:52:59.456Z,27.60
2019-05-19T13:55:27.652Z,27.20
2019-05-19T13:57:55.848Z,27.00
2019-05-19T14:00:24.069Z,26.90
2019-05-19T14:02:52.375Z,27.00
2019-05-19T14:05:20.615Z,27.40
2019-05-19T14:07:53.979Z,27.70
2019-05-19T14:10:22.773Z,27.80
2019-05-19T14:12:51.042Z,28.00
2019-05-19T14:15:19.488Z,28.20
2019-05-19T14:17:47.710Z,28.50
2019-05-19T14:20:15.909Z,28.70
2019-05-19T14:22:44.118Z,28.80
2019-05-19T14:25:12.347Z,28.90
2019-05-19T14:27:40.556Z,29.10
2019-05-19T14:30:09.045Z,29.20
2019-05-19T14:32:37.249Z,29.40
2019-05-19T14:35:08.141Z,29.60
2019-05-19T14:37:36.633Z,29.70
2019-05-19T14:40:05.570Z,30.00
2019-05-19T14:42:50.680Z,29.90
2019-05-19T14:45:18.932Z,29.60
2019-05-19T14:47:47.330Z,29.20
2019-05-19T14:50:15.528Z,28.80
2019-05-19T14:52:43.754Z,28.40
2019-05-19T14:55:11.956Z,28.00
2019-05-19T14:57:44.882Z,27.70
2019-05-19T15:00:10.145Z,27.40
2019-05-19T15:02:38.356Z,27.20
2019-05-19T15:05:06.975Z,27.60
2019-05-19T15:07:35.160Z,27.80
2019-05-19T15:10:03.741Z,27.70
2019-05-19T15:12:32.268Z,27.60
2019-05-19T15:15:00.475Z,27.40
2019-05-19T15:17:28.737Z,27.30
2019-05-19T15:19:57.028Z,27.10
2019-05-19T15:22:25.496Z,26.90
2019-05-19T15:24:53.736Z,27.00
2019-05-19T15:27:21.924Z,27.00
2019-05-19T15:29:50.129Z,27.00
2019-05-19T15:32:18.681Z,27.00
2019-05-19T15:34:48.416Z,26.90
2019-05-19T15:37:16.609Z,26.70
2019-05-19T15:39:44.834Z,26.60
2019-05-19T15:42:13.138Z,26.30
2019-05-19T15:45:00.815Z,26.30
2019-05-19T15:47:29.540Z,26.20
2019-05-19T15:49:57.832Z,26.00
2019-05-19T15:52:26.047Z,25.90
2019-05-19T15:54:54.312Z,25.60
2019-05-19T15:57:22.504Z,25.30
2019-05-19T15:59:50.816Z,24.90
2019-05-19T16:02:18.999Z,24.60
2019-05-19T16:04:47.218Z,24.40
2019-05-19T16:07:15.427Z,24.10
2019-05-19T16:09:43.649Z,23.70
2019-05-19T16:12:11.847Z,23.60
2019-05-19T16:14:40.050Z,23.60
2019-05-19T16:17:08.550Z,23.50
2019-05-19T16:19:37.075Z,23.40
2019-05-19T16:22:05.508Z,23.40
2019-05-19T16:24:34.217Z,23.40
2019-05-19T16:27:02.513Z,23.50
2019-05-19T16:29:31.081Z,23.40
2019-05-19T16:31:59.857Z,23.50
2019-05-19T16:34:28.124Z,23.40
2019-05-19T16:36:56.764Z,23.30
2019-05-19T16:39:25.133Z,23.30
2019-05-19T16:41:53.439Z,23.20
2019-05-19T16:44:21.648Z,23.20
2019-05-19T16:46:49.873Z,23.10
2019-05-19T16:49:18.055Z,23.10
2019-05-19T16:51:47.270Z,23.10
2019-05-19T16:54:17.094Z,23.00
2019-05-19T16:56:46.520Z,23.00
2019-05-19T16:59:16.048Z,22.90
2019-05-19T17:01:44.257Z,22.90
2019-05-19T17:04:12.892Z,22.80
2019-05-19T17:06:41.109Z,22.80
2019-05-19T17:09:09.460Z,22.80
2019-05-19T17:11:37.648Z,22.70
2019-05-19T17:14:05.862Z,22.70
2019-05-19T17:16:34.341Z,22.70
2019-05-19T17:19:02.541Z,22.70
2019-05-19T17:21:30.764Z,22.70
2019-05-19T17:23:59.037Z,22.60
2019-05-19T17:26:27.258Z,22.60
2019-05-19T17:29:00.548Z,22.60
2019-05-19T17:31:25.466Z,22.60
2019-05-19T17:33:53.735Z,22.60
2019-05-19T17:36:21.944Z,22.60
2019-05-19T17:38:50.145Z,22.50
2019-05-19T17:41:18.354Z,22.50
2019-05-19T17:43:46.576Z,22.40
2019-05-19T17:46:14.802Z,22.40
2019-05-19T17:48:43.036Z,22.40
2019-05-19T17:51:11.248Z,22.40
2019-05-19T17:53:39.443Z,22.30
2019-05-19T17:56:07.669Z,22.20
2019-05-19T17:58:35.966Z,22.20
2019-05-19T18:01:04.180Z,22.20
2019-05-19T18:03:32.412Z,22.10
2019-05-19T18:06:00.705Z,22.10
2019-05-19T18:08:28.931Z,22.10
2019-05-19T18:10:57.220Z,22.00
2019-05-19T18:13:25.499Z,22.00
2019-05-19T18:15:53.808Z,21.90
2019-05-19T18:18:22.011Z,21.90
2019-05-19T18:20:50.229Z,21.90
2019-05-19T18:23:18.490Z,21.80
2019-05-19T18:25:46.685Z,21.80
2019-05-19T18:28:15.174Z,21.70
2019-05-19T18:30:43.380Z,21.70
2019-05-19T18:33:11.589Z,21.60
2019-05-19T18:35:39.770Z,21.60
2019-05-19T18:38:08.008Z,21.60
2019-05-19T18:40:36.597Z,21.50
2019-05-19T18:43:04.922Z,21.50
2019-05-19T18:45:33.122Z,21.50
2019-05-19T18:48:01.338Z,21.40
2019-05-19T18:50:29.572Z,21.40
2019-05-19T18:52:58.066Z,21.40
2019-05-19T18:55:26.253Z,21.30
2019-05-19T18:57:54.778Z,21.30
2019-05-19T19:00:34.480Z,21.30
2019-05-19T19:03:02.751Z,21.30
2019-05-19T19:05:31.103Z,21.20
2019-05-19T19:07:59.408Z,21.20
2019-05-19T19:10:27.641Z,21.10
2019-05-19T19:12:56.121Z,21.10
2019-05-19T19:15:24.420Z,21.10
2019-05-19T19:17:52.892Z,21.00
2019-05-19T19:20:21.094Z,20.90
2019-05-19T19:22:49.300Z,20.90
2019-05-19T19:25:17.507Z,20.90
2019-05-19T19:27:46.094Z,20.80
2019-05-19T19:30:14.312Z,20.80
2019-05-19T19:32:42.600Z,20.80
2019-05-19T19:35:10.858Z,20.70
2019-05-19T19:37:39.263Z,20.60
2019-05-19T19:40:07.465Z,20.60
2019-05-19T19:42:35.691Z,20.50
2019-05-19T19:45:04.462Z,20.50
2019-05-19T19:47:32.711Z,20.40
2019-05-19T19:50:00.993Z,20.40
2019-05-19T19:52:29.236Z,20.30
2019-05-19T19:54:57.843Z,20.30
2019-05-19T19:57:26.477Z,20.10
2019-05-19T19:59:54.876Z,20.10
2019-05-19T20:02:23.068Z,20.00
2019-05-19T20:04:51.308Z,20.00
2019-05-19T20:07:19.608Z,19.80
2019-05-19T20:09:47.820Z,19.80
2019-05-19T20:12:16.108Z,19.70
2019-05-19T20:14:44.318Z,19.70
2019-05-19T20:17:12.534Z,19.60
2019-05-19T20:19:40.745Z,19.60
2019-05-19T20:22:08.947Z,19.50
2019-05-19T20:24:37.165Z,19.40
2019-05-19T20:27:05.445Z,19.40
2019-05-19T20:29:33.709Z,19.40
2019-05-19T20:32:01.896Z,19.30
2019-05-19T20:34:30.111Z,19.30
2019-05-19T20:36:58.339Z,19.20
2019-05-19T20:39:26.559Z,19.20
2019-05-19T20:41:54.766Z,19.30
2019-05-19T20:44:23.104Z,19.20
2019-05-19T20:46:51.333Z,19.30
2019-05-19T20:49:19.565Z,19.20
2019-05-19T20:51:47.765Z,19.20
2019-05-19T20:54:16.277Z,19.20
2019-05-19T20:56:44.537Z,19.10
2019-05-19T20:59:12.739Z,19.00
2019-05-19T21:01:41.018Z,19.00
2019-05-19T21:04:09.276Z,19.00
2019-05-19T21:06:37.482Z,19.00
2019-05-19T21:09:06.125Z,18.90
2019-05-19T21:11:34.406Z,18.90
2019-05-19T21:14:02.599Z,18.80
2019-05-19T21:16:30.805Z,18.70
2019-05-19T21:18:59.016Z,18.70
2019-05-19T21:21:27.238Z,18.70
2019-05-19T21:23:55.429Z,18.70
2019-05-19T21:26:23.644Z,18.60
2019-05-19T21:28:51.844Z,18.60
2019-05-19T21:31:20.069Z,18.60
2019-05-19T21:33:48.274Z,18.50
2019-05-19T21:36:16.478Z,18.50
2019-05-19T21:38:44.673Z,18.50
2019-05-19T21:41:12.904Z,18.50
2019-05-19T21:43:41.121Z,18.50
2019-05-19T21:46:09.340Z,18.40
2019-05-19T21:48:37.534Z,18.50
2019-05-19T21:51:05.772Z,18.40
2019-05-19T21:53:34.261Z,18.40
2019-05-19T21:56:02.546Z,18.40
2019-05-19T21:58:30.889Z,18.30
2019-05-19T22:00:59.321Z,18.30
2019-05-19T22:03:27.549Z,18.20
2019-05-19T22:05:55.778Z,18.20
2019-05-19T22:08:24.041Z,18.20
2019-05-19T22:10:52.252Z,18.10
2019-05-19T22:13:21.224Z,18.10
2019-05-19T22:15:49.436Z,18.10
2019-05-19T22:18:17.653Z,18.10
2019-05-19T22:20:45.900Z,18.10
2019-05-19T22:23:14.190Z,18.10
2019-05-19T22:25:42.420Z,18.10
2019-05-19T22:28:10.756Z,18.00
2019-05-19T22:30:38.978Z,18.00
2019-05-19T22:33:07.179Z,17.90
2019-05-19T22:35:35.389Z,17.90
2019-05-19T22:38:03.586Z,17.90
2019-05-19T22:40:31.795Z,17.90
2019-05-19T22:43:00.088Z,17.80
2019-05-19T22:45:28.267Z,17.80
2019-05-19T22:47:56.578Z,17.80
2019-05-19T22:50:24.855Z,17.70
2019-05-19T22:52:53.046Z,17.70
2019-05-19T22:55:21.255Z,17.60
2019-05-19T22:57:49.461Z,17.60
2019-05-19T23:00:17.738Z,17.60
2019-05-19T23:02:45.948Z,17.60
2019-05-19T23:05:14.136Z,17.50
2019-05-19T23:07:42.347Z,17.50
2019-05-19T23:10:10.707Z,17.50
2019-05-19T23:12:38.924Z,17.40
2019-05-19T23:15:07.388Z,17.40
2019-05-19T23:17:35.628Z,17.30
2019-05-19T23:20:04.666Z,17.30
2019-05-19T23:22:32.953Z,17.30
2019-05-19T23:25:01.159Z,17.20
2019-05-19T23:27:29.355Z,17.20
2019-05-19T23:29:57.865Z,17.10
2019-05-19T23:32:26.073Z,17.20
2019-05-19T23:34:54.261Z,17.10
2019-05-19T23:37:22.776Z,17.10
2019-05-19T23:39:54.055Z,17.00
2019-05-19T23:42:21.006Z,17.00
2019-05-19T23:44:49.259Z,17.00
2019-05-19T23:47:17.472Z,17.00
2019-05-19T23:49:45.668Z,17.00
2019-05-19T23:52:13.907Z,17.00
2019-05-19T23:54:42.105Z,16.90
2019-05-19T23:57:10.447Z,16.80
2019-05-19T23:59:38.657Z,16.70
